sensor_id;sensor_type;location;lat;lon;timestamp;P1;durP1;ratioP1;P2;durP2;ratioP2
70806;SDS011;58882;52.170;5.386;2023-03-26T00:01:09;11.73;;;2.50;;
70806;SDS011;58882;52.170;5.386;2023-03-26T00:04:06;9.88;;;2.40;;
70806;SDS011;58882;52.170;5.386;2023-03-26T00:06:46;11.35;;;2.40;;
70806;SDS011;58882;52.170;5.386;2023-03-26T00:12:14;12.75;;;2.58;;
70806;SDS011;58882;52.170;5.386;2023-03-26T00:15:01;9.93;;;2.70;;
70806;SDS011;58882;52.170;5.386;2023-03-26T00:17:43;13.98;;;2.55;;
70806;SDS011;58882;52.170;5.386;2023-03-26T00:20:32;14.68;;;2.45;;
70806;SDS011;58882;52.170;5.386;2023-03-26T00:23:12;12.02;;;2.63;;
70806;SDS011;58882;52.170;5.386;2023-03-26T00:25:59;11.82;;;2.55;;
70806;SDS011;58882;52.170;5.386;2023-03-26T00:28:41;14.88;;;2.80;;
70806;SDS011;58882;52.170;5.386;2023-03-26T00:34:09;11.95;;;2.45;;
70806;SDS011;58882;52.170;5.386;2023-03-26T00:39:41;13.60;;;2.67;;
70806;SDS011;58882;52.170;5.386;2023-03-26T00:42:28;16.45;;;3.15;;
70806;SDS011;58882;52.170;5.386;2023-03-26T00:45:08;11.73;;;2.75;;
70806;SDS011;58882;52.170;5.386;2023-03-26T00:48:00;13.82;;;2.92;;
70806;SDS011;58882;52.170;5.386;2023-03-26T00:50:40;15.57;;;2.78;;
70806;SDS011;58882;52.170;5.386;2023-03-26T00:53:27;13.50;;;2.80;;
70806;SDS011;58882;52.170;5.386;2023-03-26T00:56:07;14.02;;;3.10;;
70806;SDS011;58882;52.170;5.386;2023-03-26T00:58:55;15.00;;;2.83;;
70806;SDS011;58882;52.170;5.386;2023-03-26T01:01:36;15.27;;;2.90;;
70806;SDS011;58882;52.170;5.386;2023-03-26T01:04:24;14.82;;;3.08;;
70806;SDS011;58882;52.170;5.386;2023-03-26T01:07:14;11.32;;;2.72;;
70806;SDS011;58882;52.170;5.386;2023-03-26T01:10:07;13.43;;;2.97;;
70806;SDS011;58882;52.170;5.386;2023-03-26T01:12:47;15.85;;;2.80;;
70806;SDS011;58882;52.170;5.386;2023-03-26T01:15:34;18.10;;;3.13;;
70806;SDS011;58882;52.170;5.386;2023-03-26T01:18:24;12.57;;;2.67;;
70806;SDS011;58882;52.170;5.386;2023-03-26T01:21:12;15.35;;;2.67;;
70806;SDS011;58882;52.170;5.386;2023-03-26T01:26:53;12.88;;;2.70;;
70806;SDS011;58882;52.170;5.386;2023-03-26T01:38:29;17.67;;;2.95;;
70806;SDS011;58882;52.170;5.386;2023-03-26T01:41:57;12.75;;;2.72;;
70806;SDS011;58882;52.170;5.386;2023-03-26T01:44:34;20.45;;;2.92;;
70806;SDS011;58882;52.170;5.386;2023-03-26T01:47:23;12.25;;;2.67;;
70806;SDS011;58882;52.170;5.386;2023-03-26T01:50:11;17.15;;;3.10;;
70806;SDS011;58882;52.170;5.386;2023-03-26T01:52:52;12.88;;;3.08;;
70806;SDS011;58882;52.170;5.386;2023-03-26T02:02:07;17.60;;;3.00;;
70806;SDS011;58882;52.170;5.386;2023-03-26T02:08:09;12.38;;;3.00;;
70806;SDS011;58882;52.170;5.386;2023-03-26T02:11:08;16.50;;;3.25;;
70806;SDS011;58882;52.170;5.386;2023-03-26T02:14:14;14.18;;;2.65;;
70806;SDS011;58882;52.170;5.386;2023-03-26T02:17:09;17.17;;;3.13;;
70806;SDS011;58882;52.170;5.386;2023-03-26T02:22:37;15.20;;;2.97;;
70806;SDS011;58882;52.170;5.386;2023-03-26T02:25:20;15.18;;;2.70;;
70806;SDS011;58882;52.170;5.386;2023-03-26T02:28:08;15.15;;;2.90;;
70806;SDS011;58882;52.170;5.386;2023-03-26T02:30:48;19.92;;;3.38;;
70806;SDS011;58882;52.170;5.386;2023-03-26T02:36:16;17.40;;;3.00;;
70806;SDS011;58882;52.170;5.386;2023-03-26T02:39:13;12.93;;;2.63;;
70806;SDS011;58882;52.170;5.386;2023-03-26T02:41:57;19.77;;;3.10;;
70806;SDS011;58882;52.170;5.386;2023-03-26T02:44:53;11.35;;;2.58;;
70806;SDS011;58882;52.170;5.386;2023-03-26T02:47:49;14.02;;;2.50;;
70806;SDS011;58882;52.170;5.386;2023-03-26T02:50:58;12.93;;;3.13;;
70806;SDS011;58882;52.170;5.386;2023-03-26T02:54:01;17.50;;;3.03;;
70806;SDS011;58882;52.170;5.386;2023-03-26T02:56:54;18.70;;;3.78;;
70806;SDS011;58882;52.170;5.386;2023-03-26T02:59:57;14.38;;;2.88;;
70806;SDS011;58882;52.170;5.386;2023-03-26T03:02:36;16.45;;;3.13;;
70806;SDS011;58882;52.170;5.386;2023-03-26T03:05:50;19.17;;;3.40;;
70806;SDS011;58882;52.170;5.386;2023-03-26T03:08:36;18.83;;;3.20;;
70806;SDS011;58882;52.170;5.386;2023-03-26T03:11:42;22.08;;;3.22;;
70806;SDS011;58882;52.170;5.386;2023-03-26T03:14:15;22.05;;;3.88;;
70806;SDS011;58882;52.170;5.386;2023-03-26T03:17:09;15.35;;;2.75;;
70806;SDS011;58882;52.170;5.386;2023-03-26T03:19:49;21.55;;;3.33;;
70806;SDS011;58882;52.170;5.386;2023-03-26T03:22:36;27.15;;;3.58;;
70806;SDS011;58882;52.170;5.386;2023-03-26T03:25:16;22.25;;;3.67;;
70806;SDS011;58882;52.170;5.386;2023-03-26T03:28:05;16.33;;;3.25;;
70806;SDS011;58882;52.170;5.386;2023-03-26T03:30:46;24.92;;;3.45;;
70806;SDS011;58882;52.170;5.386;2023-03-26T03:33:37;20.23;;;3.70;;
70806;SDS011;58882;52.170;5.386;2023-03-26T03:36:19;19.48;;;3.45;;
70806;SDS011;58882;52.170;5.386;2023-03-26T03:39:27;18.92;;;3.25;;
70806;SDS011;58882;52.170;5.386;2023-03-26T03:42:08;19.42;;;3.50;;
70806;SDS011;58882;52.170;5.386;2023-03-26T03:45:06;20.73;;;3.55;;
70806;SDS011;58882;52.170;5.386;2023-03-26T03:48:05;26.92;;;4.65;;
70806;SDS011;58882;52.170;5.386;2023-03-26T03:50:53;23.90;;;4.45;;
70806;SDS011;58882;52.170;5.386;2023-03-26T03:54:23;32.50;;;5.80;;
70806;SDS011;58882;52.170;5.386;2023-03-26T03:57:12;28.83;;;5.85;;
70806;SDS011;58882;52.170;5.386;2023-03-26T04:00:04;25.90;;;5.28;;
70806;SDS011;58882;52.170;5.386;2023-03-26T04:03:00;23.80;;;4.70;;
70806;SDS011;58882;52.170;5.386;2023-03-26T04:05:47;25.80;;;5.97;;
70806;SDS011;58882;52.170;5.386;2023-03-26T04:08:33;32.30;;;5.88;;
70806;SDS011;58882;52.170;5.386;2023-03-26T04:11:20;27.75;;;6.35;;
70806;SDS011;58882;52.170;5.386;2023-03-26T04:14:22;31.48;;;6.45;;
70806;SDS011;58882;52.170;5.386;2023-03-26T04:17:13;36.20;;;6.43;;
70806;SDS011;58882;52.170;5.386;2023-03-26T04:19:54;34.55;;;6.07;;
70806;SDS011;58882;52.170;5.386;2023-03-26T04:22:45;32.30;;;6.43;;
70806;SDS011;58882;52.170;5.386;2023-03-26T04:28:54;34.90;;;5.68;;
70806;SDS011;58882;52.170;5.386;2023-03-26T04:31:34;27.85;;;5.68;;
70806;SDS011;58882;52.170;5.386;2023-03-26T04:37:13;28.33;;;5.90;;
70806;SDS011;58882;52.170;5.386;2023-03-26T04:43:13;25.25;;;5.35;;
70806;SDS011;58882;52.170;5.386;2023-03-26T04:46:19;26.67;;;6.03;;
70806;SDS011;58882;52.170;5.386;2023-03-26T04:49:11;32.42;;;6.28;;
70806;SDS011;58882;52.170;5.386;2023-03-26T04:51:58;34.85;;;6.65;;
70806;SDS011;58882;52.170;5.386;2023-03-26T04:55:18;36.50;;;6.85;;
70806;SDS011;58882;52.170;5.386;2023-03-26T04:58:24;26.38;;;6.47;;
70806;SDS011;58882;52.170;5.386;2023-03-26T05:03:58;26.30;;;5.60;;
70806;SDS011;58882;52.170;5.386;2023-03-26T05:06:39;28.38;;;6.03;;
70806;SDS011;58882;52.170;5.386;2023-03-26T05:10:00;24.48;;;5.97;;
70806;SDS011;58882;52.170;5.386;2023-03-26T05:12:45;22.55;;;5.35;;
70806;SDS011;58882;52.170;5.386;2023-03-26T05:15:41;23.73;;;5.55;;
70806;SDS011;58882;52.170;5.386;2023-03-26T05:18:34;36.45;;;6.57;;
70806;SDS011;58882;52.170;5.386;2023-03-26T05:21:29;24.83;;;6.35;;
70806;SDS011;58882;52.170;5.386;2023-03-26T05:24:09;26.05;;;6.68;;
70806;SDS011;58882;52.170;5.386;2023-03-26T05:26:58;25.02;;;6.13;;
70806;SDS011;58882;52.170;5.386;2023-03-26T05:29:38;29.67;;;6.53;;
70806;SDS011;58882;52.170;5.386;2023-03-26T05:32:32;26.02;;;6.55;;
70806;SDS011;58882;52.170;5.386;2023-03-26T05:35:15;30.90;;;6.18;;
70806;SDS011;58882;52.170;5.386;2023-03-26T05:38:02;33.78;;;6.35;;
70806;SDS011;58882;52.170;5.386;2023-03-26T05:40:42;29.60;;;6.47;;
70806;SDS011;58882;52.170;5.386;2023-03-26T05:43:36;29.10;;;6.53;;
70806;SDS011;58882;52.170;5.386;2023-03-26T05:46:35;29.90;;;5.93;;
70806;SDS011;58882;52.170;5.386;2023-03-26T05:49:20;29.95;;;6.40;;
70806;SDS011;58882;52.170;5.386;2023-03-26T05:52:07;24.35;;;6.70;;
70806;SDS011;58882;52.170;5.386;2023-03-26T05:55:05;27.55;;;6.38;;
70806;SDS011;58882;52.170;5.386;2023-03-26T05:58:11;29.95;;;5.55;;
70806;SDS011;58882;52.170;5.386;2023-03-26T06:01:11;35.35;;;7.20;;
70806;SDS011;58882;52.170;5.386;2023-03-26T06:04:26;22.05;;;6.22;;
70806;SDS011;58882;52.170;5.386;2023-03-26T06:07:36;27.02;;;6.53;;
70806;SDS011;58882;52.170;5.386;2023-03-26T06:10:24;23.50;;;6.15;;
70806;SDS011;58882;52.170;5.386;2023-03-26T06:13:04;26.63;;;6.93;;
70806;SDS011;58882;52.170;5.386;2023-03-26T06:15:59;31.52;;;7.18;;
70806;SDS011;58882;52.170;5.386;2023-03-26T06:18:46;34.65;;;6.70;;
70806;SDS011;58882;52.170;5.386;2023-03-26T06:21:54;27.88;;;7.05;;
70806;SDS011;58882;52.170;5.386;2023-03-26T06:24:54;28.65;;;7.10;;
70806;SDS011;58882;52.170;5.386;2023-03-26T06:28:09;28.48;;;7.32;;
70806;SDS011;58882;52.170;5.386;2023-03-26T06:31:02;21.60;;;5.97;;
70806;SDS011;58882;52.170;5.386;2023-03-26T06:34:02;28.38;;;7.05;;
70806;SDS011;58882;52.170;5.386;2023-03-26T06:36:35;27.05;;;6.32;;
70806;SDS011;58882;52.170;5.386;2023-03-26T06:42:22;23.10;;;6.43;;
70806;SDS011;58882;52.170;5.386;2023-03-26T06:45:56;32.40;;;7.00;;
70806;SDS011;58882;52.170;5.386;2023-03-26T06:48:48;31.65;;;6.43;;
70806;SDS011;58882;52.170;5.386;2023-03-26T06:51:58;28.63;;;6.25;;
70806;SDS011;58882;52.170;5.386;2023-03-26T06:54:59;31.10;;;7.13;;
70806;SDS011;58882;52.170;5.386;2023-03-26T06:57:58;27.33;;;7.07;;
70806;SDS011;58882;52.170;5.386;2023-03-26T07:01:01;27.13;;;7.07;;
70806;SDS011;58882;52.170;5.386;2023-03-26T07:04:28;28.27;;;7.00;;
70806;SDS011;58882;52.170;5.386;2023-03-26T07:07:20;32.45;;;6.53;;
70806;SDS011;58882;52.170;5.386;2023-03-26T07:10:42;28.42;;;6.85;;
70806;SDS011;58882;52.170;5.386;2023-03-26T07:13:34;24.52;;;6.63;;
70806;SDS011;58882;52.170;5.386;2023-03-26T07:16:51;26.65;;;6.55;;
70806;SDS011;58882;52.170;5.386;2023-03-26T07:19:49;29.15;;;7.25;;
70806;SDS011;58882;52.170;5.386;2023-03-26T07:22:36;27.83;;;6.88;;
70806;SDS011;58882;52.170;5.386;2023-03-26T07:25:55;33.63;;;7.22;;
70806;SDS011;58882;52.170;5.386;2023-03-26T07:32:21;31.90;;;6.70;;
70806;SDS011;58882;52.170;5.386;2023-03-26T07:35:49;27.55;;;6.82;;
70806;SDS011;58882;52.170;5.386;2023-03-26T07:42:33;28.33;;;7.13;;
70806;SDS011;58882;52.170;5.386;2023-03-26T07:45:55;24.23;;;6.90;;
70806;SDS011;58882;52.170;5.386;2023-03-26T07:48:56;27.65;;;7.22;;
70806;SDS011;58882;52.170;5.386;2023-03-26T07:52:09;29.38;;;7.22;;
70806;SDS011;58882;52.170;5.386;2023-03-26T07:55:12;29.77;;;7.40;;
70806;SDS011;58882;52.170;5.386;2023-03-26T08:18:15;27.35;;;7.38;;
70806;SDS011;58882;52.170;5.386;2023-03-26T08:21:12;24.95;;;7.35;;
70806;SDS011;58882;52.170;5.386;2023-03-26T08:24:21;28.70;;;7.35;;
70806;SDS011;58882;52.170;5.386;2023-03-26T08:30:30;26.98;;;7.28;;
70806;SDS011;58882;52.170;5.386;2023-03-26T08:33:15;27.48;;;7.15;;
70806;SDS011;58882;52.170;5.386;2023-03-26T08:36:04;31.98;;;9.05;;
70806;SDS011;58882;52.170;5.386;2023-03-26T08:38:45;27.15;;;7.80;;
70806;SDS011;58882;52.170;5.386;2023-03-26T08:51:11;33.03;;;7.20;;
70806;SDS011;58882;52.170;5.386;2023-03-26T08:54:13;26.15;;;6.05;;
70806;SDS011;58882;52.170;5.386;2023-03-26T09:00:20;31.92;;;6.60;;
70806;SDS011;58882;52.170;5.386;2023-03-26T09:28:14;17.77;;;5.70;;
70806;SDS011;58882;52.170;5.386;2023-03-26T09:40:55;20.55;;;5.65;;
70806;SDS011;58882;52.170;5.386;2023-03-26T09:43:52;18.73;;;5.28;;
70806;SDS011;58882;52.170;5.386;2023-03-26T09:56:30;18.58;;;4.97;;
70806;SDS011;58882;52.170;5.386;2023-03-26T09:59:17;13.50;;;4.57;;
70806;SDS011;58882;52.170;5.386;2023-03-26T10:05:31;12.65;;;3.95;;
70806;SDS011;58882;52.170;5.386;2023-03-26T10:14:39;13.15;;;3.72;;
70806;SDS011;58882;52.170;5.386;2023-03-26T10:17:39;13.88;;;3.63;;
70806;SDS011;58882;52.170;5.386;2023-03-26T10:23:53;14.57;;;3.92;;
70806;SDS011;58882;52.170;5.386;2023-03-26T10:39:24;11.18;;;3.10;;
70806;SDS011;58882;52.170;5.386;2023-03-26T10:45:56;9.63;;;2.80;;
70806;SDS011;58882;52.170;5.386;2023-03-26T10:52:10;8.57;;;2.30;;
70806;SDS011;58882;52.170;5.386;2023-03-26T10:55:07;13.00;;;2.58;;
70806;SDS011;58882;52.170;5.386;2023-03-26T10:57:56;14.52;;;2.83;;
70806;SDS011;58882;52.170;5.386;2023-03-26T11:10:00;12.15;;;3.00;;
70806;SDS011;58882;52.170;5.386;2023-03-26T11:16:13;12.48;;;2.50;;
70806;SDS011;58882;52.170;5.386;2023-03-26T11:21:58;12.60;;;2.20;;
70806;SDS011;58882;52.170;5.386;2023-03-26T11:24:53;9.70;;;2.13;;
70806;SDS011;58882;52.170;5.386;2023-03-26T11:33:24;9.82;;;2.20;;
70806;SDS011;58882;52.170;5.386;2023-03-26T11:36:28;14.00;;;2.60;;
70806;SDS011;58882;52.170;5.386;2023-03-26T11:39:18;10.48;;;2.10;;
70806;SDS011;58882;52.170;5.386;2023-03-26T11:42:10;11.65;;;2.83;;
70806;SDS011;58882;52.170;5.386;2023-03-26T11:44:59;9.57;;;2.33;;
70806;SDS011;58882;52.170;5.386;2023-03-26T11:47:58;8.85;;;2.30;;
70806;SDS011;58882;52.170;5.386;2023-03-26T11:50:49;11.52;;;2.38;;
70806;SDS011;58882;52.170;5.386;2023-03-26T12:02:37;12.70;;;2.25;;
70806;SDS011;58882;52.170;5.386;2023-03-26T12:05:46;11.98;;;2.42;;
70806;SDS011;58882;52.170;5.386;2023-03-26T12:08:30;13.32;;;2.60;;
70806;SDS011;58882;52.170;5.386;2023-03-26T12:11:29;12.95;;;2.03;;
70806;SDS011;58882;52.170;5.386;2023-03-26T12:17:11;10.07;;;2.00;;
70806;SDS011;58882;52.170;5.386;2023-03-26T12:20:23;13.23;;;2.35;;
70806;SDS011;58882;52.170;5.386;2023-03-26T12:26:18;9.13;;;1.90;;
70806;SDS011;58882;52.170;5.386;2023-03-26T12:29:13;8.38;;;1.83;;
70806;SDS011;58882;52.170;5.386;2023-03-26T12:31:56;9.85;;;1.83;;
70806;SDS011;58882;52.170;5.386;2023-03-26T12:35:03;11.23;;;2.00;;
70806;SDS011;58882;52.170;5.386;2023-03-26T12:37:46;11.55;;;2.10;;
70806;SDS011;58882;52.170;5.386;2023-03-26T12:40:33;8.43;;;1.80;;
70806;SDS011;58882;52.170;5.386;2023-03-26T12:43:58;10.48;;;1.90;;
70806;SDS011;58882;52.170;5.386;2023-03-26T12:50:10;9.35;;;1.45;;
70806;SDS011;58882;52.170;5.386;2023-03-26T12:56:17;13.02;;;1.95;;
70806;SDS011;58882;52.170;5.386;2023-03-26T12:59:28;8.65;;;1.60;;
70806;SDS011;58882;52.170;5.386;2023-03-26T13:17:48;10.05;;;1.85;;
70806;SDS011;58882;52.170;5.386;2023-03-26T13:20:46;10.07;;;1.40;;
70806;SDS011;58882;52.170;5.386;2023-03-26T13:23:57;14.02;;;2.15;;
70806;SDS011;58882;52.170;5.386;2023-03-26T13:27:04;8.80;;;1.77;;
70806;SDS011;58882;52.170;5.386;2023-03-26T13:30:01;6.32;;;1.50;;
70806;SDS011;58882;52.170;5.386;2023-03-26T13:33:48;8.32;;;1.65;;
70806;SDS011;58882;52.170;5.386;2023-03-26T13:46:28;10.45;;;1.80;;
70806;SDS011;58882;52.170;5.386;2023-03-26T13:49:17;9.00;;;1.48;;
70806;SDS011;58882;52.170;5.386;2023-03-26T13:52:13;8.25;;;1.42;;
70806;SDS011;58882;52.170;5.386;2023-03-26T13:55:25;11.32;;;1.65;;
70806;SDS011;58882;52.170;5.386;2023-03-26T14:01:21;10.48;;;2.00;;
70806;SDS011;58882;52.170;5.386;2023-03-26T14:04:14;6.47;;;1.40;;
70806;SDS011;58882;52.170;5.386;2023-03-26T14:07:11;7.72;;;1.38;;
70806;SDS011;58882;52.170;5.386;2023-03-26T14:13:17;8.98;;;1.38;;
70806;SDS011;58882;52.170;5.386;2023-03-26T14:16:13;8.35;;;1.45;;
70806;SDS011;58882;52.170;5.386;2023-03-26T14:26:13;6.72;;;1.30;;
70806;SDS011;58882;52.170;5.386;2023-03-26T14:42:02;8.10;;;1.48;;
70806;SDS011;58882;52.170;5.386;2023-03-26T14:54:48;10.32;;;2.00;;
70806;SDS011;58882;52.170;5.386;2023-03-26T14:57:49;8.75;;;1.55;;
70806;SDS011;58882;52.170;5.386;2023-03-26T15:17:02;7.47;;;1.30;;
70806;SDS011;58882;52.170;5.386;2023-03-26T15:23:33;7.40;;;1.60;;
70806;SDS011;58882;52.170;5.386;2023-03-26T15:32:37;10.98;;;2.00;;
70806;SDS011;58882;52.170;5.386;2023-03-26T15:47:32;9.27;;;1.45;;
70806;SDS011;58882;52.170;5.386;2023-03-26T15:54:05;8.13;;;1.58;;
70806;SDS011;58882;52.170;5.386;2023-03-26T16:15:14;10.85;;;1.75;;
70806;SDS011;58882;52.170;5.386;2023-03-26T16:24:25;7.18;;;1.30;;
70806;SDS011;58882;52.170;5.386;2023-03-26T16:32:56;5.70;;;1.45;;
70806;SDS011;58882;52.170;5.386;2023-03-26T16:38:54;7.28;;;1.33;;
70806;SDS011;58882;52.170;5.386;2023-03-26T16:57:56;6.97;;;1.25;;
70806;SDS011;58882;52.170;5.386;2023-03-26T17:00:25;5.38;;;1.20;;
70806;SDS011;58882;52.170;5.386;2023-03-26T17:15:45;6.40;;;1.40;;
70806;SDS011;58882;52.170;5.386;2023-03-26T17:24:41;7.18;;;1.23;;
70806;SDS011;58882;52.170;5.386;2023-03-26T17:31:13;4.93;;;1.40;;
70806;SDS011;58882;52.170;5.386;2023-03-26T17:37:30;8.85;;;1.20;;
70806;SDS011;58882;52.170;5.386;2023-03-26T17:46:41;7.25;;;1.52;;
70806;SDS011;58882;52.170;5.386;2023-03-26T17:49:29;7.35;;;1.27;;
70806;SDS011;58882;52.170;5.386;2023-03-26T17:55:03;5.28;;;1.38;;
70806;SDS011;58882;52.170;5.386;2023-03-26T17:57:59;5.50;;;1.20;;
70806;SDS011;58882;52.170;5.386;2023-03-26T18:03:42;6.88;;;1.50;;
70806;SDS011;58882;52.170;5.386;2023-03-26T18:06:40;7.35;;;1.63;;
70806;SDS011;58882;52.170;5.386;2023-03-26T18:09:46;6.63;;;1.20;;
70806;SDS011;58882;52.170;5.386;2023-03-26T18:12:39;7.78;;;1.30;;
70806;SDS011;58882;52.170;5.386;2023-03-26T18:16:07;7.80;;;1.08;;
70806;SDS011;58882;52.170;5.386;2023-03-26T18:19:12;8.85;;;1.60;;
70806;SDS011;58882;52.170;5.386;2023-03-26T18:22:04;6.22;;;1.30;;
70806;SDS011;58882;52.170;5.386;2023-03-26T18:24:52;5.82;;;1.52;;
70806;SDS011;58882;52.170;5.386;2023-03-26T18:27:42;4.43;;;1.10;;
70806;SDS011;58882;52.170;5.386;2023-03-26T18:30:22;7.15;;;1.35;;
70806;SDS011;58882;52.170;5.386;2023-03-26T18:33:13;10.32;;;1.30;;
70806;SDS011;58882;52.170;5.386;2023-03-26T18:35:54;6.85;;;1.40;;
70806;SDS011;58882;52.170;5.386;2023-03-26T18:38:42;7.60;;;1.38;;
70806;SDS011;58882;52.170;5.386;2023-03-26T18:44:17;11.75;;;1.75;;
70806;SDS011;58882;52.170;5.386;2023-03-26T18:46:58;7.60;;;1.50;;
70806;SDS011;58882;52.170;5.386;2023-03-26T18:52:47;9.93;;;1.40;;
70806;SDS011;58882;52.170;5.386;2023-03-26T18:55:20;6.20;;;1.20;;
70806;SDS011;58882;52.170;5.386;2023-03-26T19:04:03;8.20;;;1.30;;
70806;SDS011;58882;52.170;5.386;2023-03-26T19:06:45;6.63;;;1.20;;
70806;SDS011;58882;52.170;5.386;2023-03-26T19:09:33;5.15;;;1.17;;
70806;SDS011;58882;52.170;5.386;2023-03-26T19:15:06;5.05;;;1.25;;
70806;SDS011;58882;52.170;5.386;2023-03-26T19:17:52;9.05;;;1.58;;
70806;SDS011;58882;52.170;5.386;2023-03-26T19:23:37;11.00;;;2.00;;
70806;SDS011;58882;52.170;5.386;2023-03-26T19:26:26;8.00;;;1.50;;
70806;SDS011;58882;52.170;5.386;2023-03-26T19:29:08;9.43;;;1.33;;
70806;SDS011;58882;52.170;5.386;2023-03-26T19:32:17;8.57;;;1.65;;
70806;SDS011;58882;52.170;5.386;2023-03-26T19:34:59;11.85;;;1.40;;
70806;SDS011;58882;52.170;5.386;2023-03-26T19:37:49;6.78;;;1.20;;
70806;SDS011;58882;52.170;5.386;2023-03-26T19:40:25;5.82;;;1.30;;
70806;SDS011;58882;52.170;5.386;2023-03-26T19:43:19;10.48;;;1.30;;
70806;SDS011;58882;52.170;5.386;2023-03-26T19:48:46;4.55;;;1.20;;
70806;SDS011;58882;52.170;5.386;2023-03-26T19:51:25;10.00;;;1.30;;
70806;SDS011;58882;52.170;5.386;2023-03-26T19:54:24;6.00;;;1.33;;
70806;SDS011;58882;52.170;5.386;2023-03-26T19:56:57;13.45;;;1.45;;
70806;SDS011;58882;52.170;5.386;2023-03-26T19:59:51;8.68;;;1.30;;
70806;SDS011;58882;52.170;5.386;2023-03-26T20:02:24;7.25;;;1.02;;
70806;SDS011;58882;52.170;5.386;2023-03-26T20:07:58;6.43;;;1.05;;
70806;SDS011;58882;52.170;5.386;2023-03-26T20:10:55;7.80;;;1.38;;
70806;SDS011;58882;52.170;5.386;2023-03-26T20:13:29;7.90;;;1.20;;
70806;SDS011;58882;52.170;5.386;2023-03-26T20:19:09;6.57;;;1.15;;
70806;SDS011;58882;52.170;5.386;2023-03-26T20:21:56;4.47;;;1.10;;
70806;SDS011;58882;52.170;5.386;2023-03-26T20:24:37;9.15;;;1.25;;
70806;SDS011;58882;52.170;5.386;2023-03-26T20:27:24;13.05;;;1.35;;
70806;SDS011;58882;52.170;5.386;2023-03-26T20:32:54;8.15;;;1.35;;
70806;SDS011;58882;52.170;5.386;2023-03-26T20:35:45;8.63;;;1.17;;
70806;SDS011;58882;52.170;5.386;2023-03-26T20:38:25;9.60;;;1.40;;
70806;SDS011;58882;52.170;5.386;2023-03-26T20:44:02;8.45;;;1.20;;
70806;SDS011;58882;52.170;5.386;2023-03-26T20:46:51;5.20;;;1.10;;
70806;SDS011;58882;52.170;5.386;2023-03-26T20:49:31;5.50;;;1.30;;
70806;SDS011;58882;52.170;5.386;2023-03-26T20:52:18;4.85;;;1.00;;
70806;SDS011;58882;52.170;5.386;2023-03-26T20:55:14;6.30;;;1.17;;
70806;SDS011;58882;52.170;5.386;2023-03-26T20:57:55;6.38;;;1.38;;
70806;SDS011;58882;52.170;5.386;2023-03-26T21:00:49;6.47;;;1.10;;
70806;SDS011;58882;52.170;5.386;2023-03-26T21:03:29;7.07;;;1.25;;
70806;SDS011;58882;52.170;5.386;2023-03-26T21:06:23;8.38;;;1.20;;
70806;SDS011;58882;52.170;5.386;2023-03-26T21:08:56;11.35;;;1.17;;
70806;SDS011;58882;52.170;5.386;2023-03-26T21:14:40;6.85;;;1.23;;
70806;SDS011;58882;52.170;5.386;2023-03-26T21:17:34;4.82;;;1.00;;
70806;SDS011;58882;52.170;5.386;2023-03-26T21:23:22;8.45;;;1.23;;
70806;SDS011;58882;52.170;5.386;2023-03-26T21:26:10;4.40;;;0.90;;
70806;SDS011;58882;52.170;5.386;2023-03-26T21:29:20;5.95;;;1.08;;
70806;SDS011;58882;52.170;5.386;2023-03-26T21:31:54;10.07;;;1.00;;
70806;SDS011;58882;52.170;5.386;2023-03-26T21:34:48;6.53;;;1.00;;
70806;SDS011;58882;52.170;5.386;2023-03-26T21:37:31;7.65;;;1.00;;
70806;SDS011;58882;52.170;5.386;2023-03-26T21:43:05;6.40;;;1.25;;
70806;SDS011;58882;52.170;5.386;2023-03-26T21:45:52;7.43;;;1.00;;
70806;SDS011;58882;52.170;5.386;2023-03-26T21:48:29;7.53;;;1.15;;
70806;SDS011;58882;52.170;5.386;2023-03-26T21:51:23;7.10;;;1.05;;
70806;SDS011;58882;52.170;5.386;2023-03-26T21:54:04;6.57;;;1.48;;
70806;SDS011;58882;52.170;5.386;2023-03-26T21:57:27;9.05;;;1.00;;
70806;SDS011;58882;52.170;5.386;2023-03-26T22:01:25;9.57;;;1.25;;
70806;SDS011;58882;52.170;5.386;2023-03-26T22:04:04;6.03;;;1.13;;
70806;SDS011;58882;52.170;5.386;2023-03-26T22:07:09;6.88;;;1.27;;
70806;SDS011;58882;52.170;5.386;2023-03-26T22:09:52;5.90;;;1.17;;
70806;SDS011;58882;52.170;5.386;2023-03-26T22:12:39;8.15;;;1.30;;
70806;SDS011;58882;52.170;5.386;2023-03-26T22:15:27;3.50;;;0.90;;
70806;SDS011;58882;52.170;5.386;2023-03-26T22:18:07;8.68;;;1.33;;
70806;SDS011;58882;52.170;5.386;2023-03-26T22:20:54;5.20;;;0.98;;
70806;SDS011;58882;52.170;5.386;2023-03-26T22:23:36;6.82;;;1.23;;
70806;SDS011;58882;52.170;5.386;2023-03-26T22:29:18;5.00;;;0.90;;
70806;SDS011;58882;52.170;5.386;2023-03-26T22:31:58;5.00;;;1.00;;
70806;SDS011;58882;52.170;5.386;2023-03-26T22:34:52;3.63;;;0.77;;
70806;SDS011;58882;52.170;5.386;2023-03-26T22:37:25;7.93;;;1.33;;
70806;SDS011;58882;52.170;5.386;2023-03-26T22:40:19;5.03;;;1.00;;
70806;SDS011;58882;52.170;5.386;2023-03-26T22:42:59;6.30;;;1.00;;
70806;SDS011;58882;52.170;5.386;2023-03-26T22:45:53;8.52;;;1.23;;
70806;SDS011;58882;52.170;5.386;2023-03-26T22:48:26;8.00;;;1.20;;
70806;SDS011;58882;52.170;5.386;2023-03-26T22:51:22;4.53;;;0.93;;
70806;SDS011;58882;52.170;5.386;2023-03-26T22:54:16;6.32;;;0.88;;
70806;SDS011;58882;52.170;5.386;2023-03-26T22:56:56;5.57;;;1.15;;
70806;SDS011;58882;52.170;5.386;2023-03-26T22:59:43;6.53;;;1.13;;
70806;SDS011;58882;52.170;5.386;2023-03-26T23:02:23;5.63;;;0.88;;
70806;SDS011;58882;52.170;5.386;2023-03-26T23:05:17;6.07;;;1.10;;
70806;SDS011;58882;52.170;5.386;2023-03-26T23:07:57;4.07;;;1.55;;
70806;SDS011;58882;52.170;5.386;2023-03-26T23:10:46;7.93;;;1.10;;
70806;SDS011;58882;52.170;5.386;2023-03-26T23:13:26;4.57;;;1.00;;
70806;SDS011;58882;52.170;5.386;2023-03-26T23:16:13;8.77;;;1.15;;
70806;SDS011;58882;52.170;5.386;2023-03-26T23:18:55;6.45;;;1.00;;
70806;SDS011;58882;52.170;5.386;2023-03-26T23:24:23;3.67;;;1.08;;
70806;SDS011;58882;52.170;5.386;2023-03-26T23:27:10;7.82;;;1.70;;
70806;SDS011;58882;52.170;5.386;2023-03-26T23:29:54;7.22;;;1.25;;
70806;SDS011;58882;52.170;5.386;2023-03-26T23:32:42;6.50;;;1.00;;
70806;SDS011;58882;52.170;5.386;2023-03-26T23:35:22;6.45;;;1.08;;
70806;SDS011;58882;52.170;5.386;2023-03-26T23:38:09;8.30;;;1.20;;
70806;SDS011;58882;52.170;5.386;2023-03-26T23:40:51;9.75;;;1.15;;
70806;SDS011;58882;52.170;5.386;2023-03-26T23:43:38;5.93;;;1.20;;
70806;SDS011;58882;52.170;5.386;2023-03-26T23:46:27;7.13;;;1.20;;
70806;SDS011;58882;52.170;5.386;2023-03-26T23:49:21;6.18;;;1.30;;
70806;SDS011;58882;52.170;5.386;2023-03-26T23:52:08;12.52;;;1.38;;
70806;SDS011;58882;52.170;5.386;2023-03-26T23:54:48;5.32;;;0.98;;
70806;SDS011;58882;52.170;5.386;2023-03-26T23:57:35;8.15;;;1.20;;
